sensor_id;sensor_type;location;lat;lon;timestamp;P1;durP1;ratioP1;P2;durP2;ratioP2
2892;SDS011;1456;51.840;12.184;2023-05-31T00:00:29;4.80;;;4.80;;
2892;SDS011;1456;51.840;12.184;2023-05-31T00:02:56;4.50;;;4.50;;
2892;SDS011;1456;51.840;12.184;2023-05-31T00:05:23;4.43;;;4.43;;
2892;SDS011;1456;51.840;12.184;2023-05-31T00:07:50;4.40;;;4.40;;
2892;SDS011;1456;51.840;12.184;2023-05-31T00:10:15;4.50;;;4.50;;
2892;SDS011;1456;51.840;12.184;2023-05-31T00:12:41;4.27;;;4.27;;
2892;SDS011;1456;51.840;12.184;2023-05-31T00:15:07;5.30;;;5.20;;
2892;SDS011;1456;51.840;12.184;2023-05-31T00:17:33;5.47;;;5.37;;
2892;SDS011;1456;51.840;12.184;2023-05-31T00:19:58;4.90;;;4.80;;
2892;SDS011;1456;51.840;12.184;2023-05-31T00:22:24;4.57;;;4.47;;
2892;SDS011;1456;51.840;12.184;2023-05-31T00:24:50;4.17;;;4.17;;
2892;SDS011;1456;51.840;12.184;2023-05-31T00:27:17;4.37;;;4.27;;
2892;SDS011;1456;51.840;12.184;2023-05-31T00:29:42;4.40;;;4.40;;
2892;SDS011;1456;51.840;12.184;2023-05-31T00:32:08;4.30;;;4.20;;
2892;SDS011;1456;51.840;12.184;2023-05-31T00:34:34;3.73;;;3.63;;
2892;SDS011;1456;51.840;12.184;2023-05-31T00:36:59;2.90;;;2.90;;
2892;SDS011;1456;51.840;12.184;2023-05-31T00:39:31;3.93;;;3.83;;
2892;SDS011;1456;51.840;12.184;2023-05-31T00:41:56;3.03;;;3.03;;
2892;SDS011;1456;51.840;12.184;2023-05-31T00:44:24;3.50;;;3.50;;
2892;SDS011;1456;51.840;12.184;2023-05-31T00:46:56;2.90;;;2.90;;
2892;SDS011;1456;51.840;12.184;2023-05-31T00:49:22;2.73;;;2.73;;
2892;SDS011;1456;51.840;12.184;2023-05-31T00:51:47;4.67;;;4.40;;
2892;SDS011;1456;51.840;12.184;2023-05-31T00:54:13;3.00;;;2.80;;
2892;SDS011;1456;51.840;12.184;2023-05-31T00:56:39;3.50;;;3.50;;
2892;SDS011;1456;51.840;12.184;2023-05-31T00:59:06;3.53;;;3.53;;
2892;SDS011;1456;51.840;12.184;2023-05-31T01:01:31;2.70;;;2.70;;
2892;SDS011;1456;51.840;12.184;2023-05-31T01:03:58;2.60;;;2.60;;
2892;SDS011;1456;51.840;12.184;2023-05-31T01:06:24;2.30;;;2.30;;
2892;SDS011;1456;51.840;12.184;2023-05-31T01:08:53;2.70;;;2.70;;
2892;SDS011;1456;51.840;12.184;2023-05-31T01:11:26;2.33;;;2.33;;
2892;SDS011;1456;51.840;12.184;2023-05-31T01:14:42;2.40;;;2.40;;
2892;SDS011;1456;51.840;12.184;2023-05-31T01:28:50;1.87;;;1.87;;
2892;SDS011;1456;51.840;12.184;2023-05-31T01:31:20;4.63;;;2.33;;
2892;SDS011;1456;51.840;12.184;2023-05-31T01:33:48;1.80;;;1.80;;
2892;SDS011;1456;51.840;12.184;2023-05-31T01:36:15;1.50;;;1.50;;
2892;SDS011;1456;51.840;12.184;2023-05-31T01:38:41;1.57;;;1.57;;
2892;SDS011;1456;51.840;12.184;2023-05-31T01:41:12;1.57;;;1.57;;
2892;SDS011;1456;51.840;12.184;2023-05-31T01:43:43;1.47;;;1.47;;
2892;SDS011;1456;51.840;12.184;2023-05-31T01:46:16;1.27;;;1.27;;
2892;SDS011;1456;51.840;12.184;2023-05-31T01:48:46;1.33;;;1.33;;
2892;SDS011;1456;51.840;12.184;2023-05-31T01:51:14;0.90;;;0.90;;
2892;SDS011;1456;51.840;12.184;2023-05-31T01:53:40;1.00;;;1.00;;
2892;SDS011;1456;51.840;12.184;2023-05-31T01:56:09;0.90;;;0.90;;
2892;SDS011;1456;51.840;12.184;2023-05-31T01:58:36;1.00;;;1.00;;
2892;SDS011;1456;51.840;12.184;2023-05-31T02:01:09;4.10;;;1.20;;
2892;SDS011;1456;51.840;12.184;2023-05-31T02:03:36;1.07;;;1.07;;
2892;SDS011;1456;51.840;12.184;2023-05-31T02:06:04;0.83;;;0.83;;
2892;SDS011;1456;51.840;12.184;2023-05-31T02:08:30;0.97;;;0.97;;
2892;SDS011;1456;51.840;12.184;2023-05-31T02:10:56;1.73;;;1.63;;
2892;SDS011;1456;51.840;12.184;2023-05-31T02:13:26;1.00;;;1.00;;
2892;SDS011;1456;51.840;12.184;2023-05-31T02:15:53;0.90;;;0.90;;
2892;SDS011;1456;51.840;12.184;2023-05-31T02:18:19;1.10;;;1.10;;
2892;SDS011;1456;51.840;12.184;2023-05-31T02:20:46;1.37;;;1.37;;
2892;SDS011;1456;51.840;12.184;2023-05-31T02:23:13;2.00;;;1.60;;
2892;SDS011;1456;51.840;12.184;2023-05-31T02:25:39;1.20;;;1.20;;
2892;SDS011;1456;51.840;12.184;2023-05-31T02:28:05;1.20;;;1.10;;
2892;SDS011;1456;51.840;12.184;2023-05-31T02:30:34;0.90;;;0.90;;
2892;SDS011;1456;51.840;12.184;2023-05-31T02:33:01;0.87;;;0.87;;
2892;SDS011;1456;51.840;12.184;2023-05-31T02:35:28;1.70;;;1.70;;
2892;SDS011;1456;51.840;12.184;2023-05-31T02:37:53;1.00;;;1.00;;
2892;SDS011;1456;51.840;12.184;2023-05-31T02:40:19;1.10;;;1.10;;
2892;SDS011;1456;51.840;12.184;2023-05-31T02:42:45;1.87;;;1.70;;
2892;SDS011;1456;51.840;12.184;2023-05-31T02:45:10;1.73;;;1.20;;
2892;SDS011;1456;51.840;12.184;2023-05-31T02:47:37;1.77;;;1.77;;
2892;SDS011;1456;51.840;12.184;2023-05-31T02:50:04;1.30;;;1.30;;
2892;SDS011;1456;51.840;12.184;2023-05-31T02:52:34;1.10;;;1.10;;
2892;SDS011;1456;51.840;12.184;2023-05-31T02:55:01;1.70;;;1.60;;
2892;SDS011;1456;51.840;12.184;2023-05-31T02:57:26;1.43;;;1.43;;
2892;SDS011;1456;51.840;12.184;2023-05-31T02:59:55;1.20;;;1.20;;
2892;SDS011;1456;51.840;12.184;2023-05-31T03:02:25;1.23;;;1.23;;
2892;SDS011;1456;51.840;12.184;2023-05-31T03:04:51;1.73;;;1.73;;
2892;SDS011;1456;51.840;12.184;2023-05-31T03:07:16;2.03;;;1.93;;
2892;SDS011;1456;51.840;12.184;2023-05-31T03:09:42;1.40;;;1.30;;
2892;SDS011;1456;51.840;12.184;2023-05-31T03:12:08;1.43;;;1.10;;
2892;SDS011;1456;51.840;12.184;2023-05-31T03:14:35;1.27;;;1.27;;
2892;SDS011;1456;51.840;12.184;2023-05-31T03:17:02;1.93;;;1.93;;
2892;SDS011;1456;51.840;12.184;2023-05-31T03:19:28;9.07;;;2.10;;
2892;SDS011;1456;51.840;12.184;2023-05-31T03:21:56;1.73;;;1.63;;
2892;SDS011;1456;51.840;12.184;2023-05-31T03:24:22;1.30;;;1.30;;
2892;SDS011;1456;51.840;12.184;2023-05-31T03:26:47;0.80;;;0.80;;
2892;SDS011;1456;51.840;12.184;2023-05-31T03:29:13;1.37;;;1.27;;
2892;SDS011;1456;51.840;12.184;2023-05-31T03:31:39;0.83;;;0.83;;
2892;SDS011;1456;51.840;12.184;2023-05-31T03:34:05;1.43;;;1.43;;
2892;SDS011;1456;51.840;12.184;2023-05-31T03:36:31;1.23;;;1.23;;
2892;SDS011;1456;51.840;12.184;2023-05-31T03:38:56;0.70;;;0.70;;
2892;SDS011;1456;51.840;12.184;2023-05-31T03:41:22;1.57;;;1.57;;
2892;SDS011;1456;51.840;12.184;2023-05-31T03:43:47;0.60;;;0.60;;
2892;SDS011;1456;51.840;12.184;2023-05-31T03:46:16;3.33;;;0.80;;
2892;SDS011;1456;51.840;12.184;2023-05-31T03:48:42;0.70;;;0.70;;
2892;SDS011;1456;51.840;12.184;2023-05-31T03:51:09;0.80;;;0.80;;
2892;SDS011;1456;51.840;12.184;2023-05-31T03:53:34;0.90;;;0.90;;
2892;SDS011;1456;51.840;12.184;2023-05-31T03:56:01;0.70;;;0.70;;
2892;SDS011;1456;51.840;12.184;2023-05-31T03:58:27;1.07;;;1.07;;
2892;SDS011;1456;51.840;12.184;2023-05-31T04:00:54;0.80;;;0.80;;
2892;SDS011;1456;51.840;12.184;2023-05-31T04:03:21;0.70;;;0.70;;
2892;SDS011;1456;51.840;12.184;2023-05-31T04:05:47;1.37;;;1.37;;
2892;SDS011;1456;51.840;12.184;2023-05-31T04:08:14;1.70;;;1.60;;
2892;SDS011;1456;51.840;12.184;2023-05-31T04:10:40;1.07;;;1.03;;
2892;SDS011;1456;51.840;12.184;2023-05-31T04:13:06;0.87;;;0.87;;
2892;SDS011;1456;51.840;12.184;2023-05-31T04:15:31;1.10;;;1.10;;
2892;SDS011;1456;51.840;12.184;2023-05-31T04:17:57;1.20;;;1.20;;
2892;SDS011;1456;51.840;12.184;2023-05-31T04:20:23;0.70;;;0.70;;
2892;SDS011;1456;51.840;12.184;2023-05-31T04:22:49;0.70;;;0.70;;
2892;SDS011;1456;51.840;12.184;2023-05-31T04:25:15;0.70;;;0.70;;
2892;SDS011;1456;51.840;12.184;2023-05-31T04:27:42;0.63;;;0.63;;
2892;SDS011;1456;51.840;12.184;2023-05-31T04:30:08;1.27;;;1.27;;
2892;SDS011;1456;51.840;12.184;2023-05-31T04:32:34;2.43;;;1.80;;
2892;SDS011;1456;51.840;12.184;2023-05-31T04:35:00;1.20;;;1.20;;
2892;SDS011;1456;51.840;12.184;2023-05-31T04:37:28;1.80;;;1.27;;
2892;SDS011;1456;51.840;12.184;2023-05-31T04:39:59;1.13;;;1.13;;
2892;SDS011;1456;51.840;12.184;2023-05-31T04:42:26;1.73;;;1.10;;
2892;SDS011;1456;51.840;12.184;2023-05-31T04:44:55;1.20;;;1.20;;
2892;SDS011;1456;51.840;12.184;2023-05-31T04:47:28;1.57;;;1.37;;
2892;SDS011;1456;51.840;12.184;2023-05-31T04:49:56;1.50;;;1.50;;
2892;SDS011;1456;51.840;12.184;2023-05-31T04:52:23;0.90;;;0.90;;
2892;SDS011;1456;51.840;12.184;2023-05-31T04:54:53;1.07;;;1.07;;
2892;SDS011;1456;51.840;12.184;2023-05-31T04:57:19;1.03;;;1.03;;
2892;SDS011;1456;51.840;12.184;2023-05-31T04:59:47;1.23;;;1.23;;
2892;SDS011;1456;51.840;12.184;2023-05-31T05:02:14;2.33;;;2.30;;
2892;SDS011;1456;51.840;12.184;2023-05-31T05:04:40;1.40;;;1.40;;
2892;SDS011;1456;51.840;12.184;2023-05-31T05:07:06;2.13;;;1.90;;
2892;SDS011;1456;51.840;12.184;2023-05-31T05:09:32;3.43;;;1.63;;
2892;SDS011;1456;51.840;12.184;2023-05-31T05:11:58;1.00;;;1.00;;
2892;SDS011;1456;51.840;12.184;2023-05-31T05:14:25;0.93;;;0.93;;
2892;SDS011;1456;51.840;12.184;2023-05-31T05:16:52;2.13;;;2.13;;
2892;SDS011;1456;51.840;12.184;2023-05-31T05:19:19;1.70;;;1.67;;
2892;SDS011;1456;51.840;12.184;2023-05-31T05:21:45;1.30;;;1.30;;
2892;SDS011;1456;51.840;12.184;2023-05-31T05:24:11;2.83;;;2.57;;
2892;SDS011;1456;51.840;12.184;2023-05-31T05:26:37;1.40;;;1.40;;
2892;SDS011;1456;51.840;12.184;2023-05-31T05:29:02;1.60;;;1.60;;
2892;SDS011;1456;51.840;12.184;2023-05-31T05:31:28;2.10;;;2.10;;
2892;SDS011;1456;51.840;12.184;2023-05-31T05:33:54;1.67;;;1.67;;
2892;SDS011;1456;51.840;12.184;2023-05-31T05:36:20;1.50;;;1.50;;
2892;SDS011;1456;51.840;12.184;2023-05-31T05:38:46;2.07;;;1.97;;
2892;SDS011;1456;51.840;12.184;2023-05-31T05:41:13;2.43;;;2.43;;
2892;SDS011;1456;51.840;12.184;2023-05-31T05:43:41;1.93;;;1.93;;
2892;SDS011;1456;51.840;12.184;2023-05-31T05:46:13;2.83;;;2.33;;
2892;SDS011;1456;51.840;12.184;2023-05-31T05:48:39;2.77;;;2.77;;
2892;SDS011;1456;51.840;12.184;2023-05-31T05:51:13;1.60;;;1.60;;
2892;SDS011;1456;51.840;12.184;2023-05-31T05:53:40;2.90;;;2.90;;
2892;SDS011;1456;51.840;12.184;2023-05-31T05:56:05;2.93;;;2.93;;
2892;SDS011;1456;51.840;12.184;2023-05-31T05:58:31;2.60;;;2.60;;
2892;SDS011;1456;51.840;12.184;2023-05-31T06:01:02;3.37;;;3.37;;
2892;SDS011;1456;51.840;12.184;2023-05-31T06:03:29;3.10;;;3.00;;
2892;SDS011;1456;51.840;12.184;2023-05-31T06:05:55;3.50;;;3.30;;
2892;SDS011;1456;51.840;12.184;2023-05-31T06:08:21;3.70;;;3.70;;
2892;SDS011;1456;51.840;12.184;2023-05-31T06:10:48;3.73;;;3.73;;
2892;SDS011;1456;51.840;12.184;2023-05-31T06:13:13;3.93;;;3.87;;
2892;SDS011;1456;51.840;12.184;2023-05-31T06:15:40;3.70;;;3.70;;
2892;SDS011;1456;51.840;12.184;2023-05-31T06:18:06;5.13;;;5.13;;
2892;SDS011;1456;51.840;12.184;2023-05-31T06:20:34;4.10;;;4.10;;
2892;SDS011;1456;51.840;12.184;2023-05-31T06:23:01;5.27;;;5.17;;
2892;SDS011;1456;51.840;12.184;2023-05-31T06:25:27;5.30;;;5.20;;
2892;SDS011;1456;51.840;12.184;2023-05-31T06:27:53;5.27;;;5.27;;
2892;SDS011;1456;51.840;12.184;2023-05-31T06:30:22;5.17;;;5.07;;
2892;SDS011;1456;51.840;12.184;2023-05-31T06:32:48;4.90;;;4.90;;
2892;SDS011;1456;51.840;12.184;2023-05-31T06:35:13;5.17;;;5.10;;
2892;SDS011;1456;51.840;12.184;2023-05-31T06:37:39;5.33;;;5.33;;
2892;SDS011;1456;51.840;12.184;2023-05-31T06:40:05;5.20;;;5.20;;
2892;SDS011;1456;51.840;12.184;2023-05-31T06:42:35;5.20;;;5.10;;
2892;SDS011;1456;51.840;12.184;2023-05-31T06:45:01;6.27;;;6.27;;
2892;SDS011;1456;51.840;12.184;2023-05-31T06:47:27;6.17;;;6.17;;
2892;SDS011;1456;51.840;12.184;2023-05-31T06:49:53;6.00;;;6.00;;
2892;SDS011;1456;51.840;12.184;2023-05-31T06:52:18;6.57;;;6.47;;
2892;SDS011;1456;51.840;12.184;2023-05-31T06:54:44;6.20;;;6.10;;
2892;SDS011;1456;51.840;12.184;2023-05-31T06:57:12;5.93;;;5.83;;
2892;SDS011;1456;51.840;12.184;2023-05-31T06:59:38;7.43;;;7.33;;
2892;SDS011;1456;51.840;12.184;2023-05-31T07:02:03;6.20;;;6.20;;
2892;SDS011;1456;51.840;12.184;2023-05-31T07:04:30;6.77;;;6.67;;
2892;SDS011;1456;51.840;12.184;2023-05-31T07:06:56;7.57;;;7.37;;
2892;SDS011;1456;51.840;12.184;2023-05-31T07:09:22;7.10;;;7.00;;
2892;SDS011;1456;51.840;12.184;2023-05-31T07:11:47;7.40;;;7.30;;
2892;SDS011;1456;51.840;12.184;2023-05-31T07:14:13;7.50;;;7.30;;
2892;SDS011;1456;51.840;12.184;2023-05-31T07:16:40;7.13;;;7.03;;
2892;SDS011;1456;51.840;12.184;2023-05-31T07:19:05;7.20;;;7.10;;
2892;SDS011;1456;51.840;12.184;2023-05-31T07:21:33;7.30;;;7.20;;
2892;SDS011;1456;51.840;12.184;2023-05-31T07:23:59;7.10;;;7.00;;
2892;SDS011;1456;51.840;12.184;2023-05-31T07:26:24;7.23;;;7.13;;
2892;SDS011;1456;51.840;12.184;2023-05-31T07:28:52;7.70;;;7.60;;
2892;SDS011;1456;51.840;12.184;2023-05-31T07:31:18;9.13;;;8.83;;
2892;SDS011;1456;51.840;12.184;2023-05-31T07:33:44;9.73;;;8.90;;
2892;SDS011;1456;51.840;12.184;2023-05-31T07:36:11;7.50;;;7.40;;
2892;SDS011;1456;51.840;12.184;2023-05-31T07:38:36;6.90;;;6.80;;
2892;SDS011;1456;51.840;12.184;2023-05-31T07:41:02;6.90;;;6.80;;
2892;SDS011;1456;51.840;12.184;2023-05-31T07:43:29;7.53;;;7.43;;
2892;SDS011;1456;51.840;12.184;2023-05-31T07:45:55;7.43;;;7.33;;
2892;SDS011;1456;51.840;12.184;2023-05-31T07:48:23;7.73;;;7.63;;
2892;SDS011;1456;51.840;12.184;2023-05-31T07:50:51;7.90;;;7.80;;
2892;SDS011;1456;51.840;12.184;2023-05-31T07:53:18;7.77;;;7.67;;
2892;SDS011;1456;51.840;12.184;2023-05-31T07:55:43;9.50;;;9.20;;
2892;SDS011;1456;51.840;12.184;2023-05-31T07:58:09;7.63;;;7.53;;
2892;SDS011;1456;51.840;12.184;2023-05-31T08:03:06;8.47;;;8.37;;
2892;SDS011;1456;51.840;12.184;2023-05-31T08:05:32;7.63;;;7.53;;
2892;SDS011;1456;51.840;12.184;2023-05-31T08:07:58;9.50;;;9.20;;
2892;SDS011;1456;51.840;12.184;2023-05-31T08:10:28;8.30;;;8.20;;
2892;SDS011;1456;51.840;12.184;2023-05-31T08:12:57;8.07;;;7.97;;
2892;SDS011;1456;51.840;12.184;2023-05-31T08:15:23;8.77;;;8.67;;
2892;SDS011;1456;51.840;12.184;2023-05-31T08:17:50;8.50;;;8.40;;
2892;SDS011;1456;51.840;12.184;2023-05-31T08:20:15;8.50;;;8.40;;
2892;SDS011;1456;51.840;12.184;2023-05-31T08:22:42;8.90;;;8.70;;
2892;SDS011;1456;51.840;12.184;2023-05-31T08:25:11;8.30;;;8.20;;
2892;SDS011;1456;51.840;12.184;2023-05-31T08:27:39;9.30;;;9.10;;
2892;SDS011;1456;51.840;12.184;2023-05-31T08:30:11;9.17;;;8.87;;
2892;SDS011;1456;51.840;12.184;2023-05-31T08:32:37;8.73;;;8.63;;
2892;SDS011;1456;51.840;12.184;2023-05-31T08:35:06;9.00;;;8.90;;
2892;SDS011;1456;51.840;12.184;2023-05-31T08:37:34;8.60;;;8.50;;
2892;SDS011;1456;51.840;12.184;2023-05-31T08:40:01;8.80;;;8.60;;
2892;SDS011;1456;51.840;12.184;2023-05-31T08:42:33;8.50;;;8.40;;
2892;SDS011;1456;51.840;12.184;2023-05-31T08:45:20;9.43;;;9.30;;
2892;SDS011;1456;51.840;12.184;2023-05-31T08:47:50;9.00;;;8.90;;
2892;SDS011;1456;51.840;12.184;2023-05-31T08:50:21;8.80;;;8.70;;
2892;SDS011;1456;51.840;12.184;2023-05-31T08:52:47;9.53;;;9.37;;
2892;SDS011;1456;51.840;12.184;2023-05-31T08:55:14;9.50;;;9.40;;
2892;SDS011;1456;51.840;12.184;2023-05-31T08:57:41;8.80;;;8.70;;
2892;SDS011;1456;51.840;12.184;2023-05-31T09:00:07;8.90;;;8.80;;
2892;SDS011;1456;51.840;12.184;2023-05-31T09:02:36;11.63;;;9.73;;
2892;SDS011;1456;51.840;12.184;2023-05-31T09:05:03;9.53;;;9.37;;
2892;SDS011;1456;51.840;12.184;2023-05-31T09:07:30;9.20;;;9.10;;
2892;SDS011;1456;51.840;12.184;2023-05-31T09:09:56;9.10;;;9.00;;
2892;SDS011;1456;51.840;12.184;2023-05-31T09:12:23;9.80;;;9.70;;
2892;SDS011;1456;51.840;12.184;2023-05-31T09:14:48;10.13;;;9.63;;
2892;SDS011;1456;51.840;12.184;2023-05-31T09:17:15;9.70;;;9.60;;
2892;SDS011;1456;51.840;12.184;2023-05-31T09:19:52;9.80;;;9.67;;
2892;SDS011;1456;51.840;12.184;2023-05-31T09:22:21;9.87;;;9.60;;
2892;SDS011;1456;51.840;12.184;2023-05-31T09:24:56;9.47;;;9.27;;
2892;SDS011;1456;51.840;12.184;2023-05-31T09:27:23;9.20;;;9.10;;
2892;SDS011;1456;51.840;12.184;2023-05-31T09:29:52;9.53;;;9.43;;
2892;SDS011;1456;51.840;12.184;2023-05-31T09:32:19;10.30;;;10.10;;
2892;SDS011;1456;51.840;12.184;2023-05-31T09:34:46;9.60;;;9.50;;
2892;SDS011;1456;51.840;12.184;2023-05-31T09:37:30;10.07;;;9.77;;
2892;SDS011;1456;51.840;12.184;2023-05-31T09:39:57;9.73;;;9.63;;
2892;SDS011;1456;51.840;12.184;2023-05-31T09:42:26;9.20;;;9.10;;
2892;SDS011;1456;51.840;12.184;2023-05-31T09:44:53;9.00;;;8.90;;
2892;SDS011;1456;51.840;12.184;2023-05-31T09:47:23;9.57;;;9.47;;
2892;SDS011;1456;51.840;12.184;2023-05-31T09:49:52;9.70;;;9.60;;
2892;SDS011;1456;51.840;12.184;2023-05-31T09:52:19;9.97;;;9.87;;
2892;SDS011;1456;51.840;12.184;2023-05-31T09:54:56;10.17;;;10.07;;
2892;SDS011;1456;51.840;12.184;2023-05-31T09:57:33;10.57;;;10.37;;
2892;SDS011;1456;51.840;12.184;2023-05-31T10:00:05;10.80;;;10.60;;
2892;SDS011;1456;51.840;12.184;2023-05-31T10:02:39;10.00;;;9.80;;
2892;SDS011;1456;51.840;12.184;2023-05-31T10:05:08;10.60;;;10.40;;
2892;SDS011;1456;51.840;12.184;2023-05-31T10:07:36;11.00;;;10.80;;
2892;SDS011;1456;51.840;12.184;2023-05-31T10:10:07;10.53;;;10.33;;
2892;SDS011;1456;51.840;12.184;2023-05-31T10:12:38;10.70;;;10.50;;
2892;SDS011;1456;51.840;12.184;2023-05-31T10:15:16;10.70;;;10.40;;
2892;SDS011;1456;51.840;12.184;2023-05-31T10:17:45;11.90;;;11.60;;
2892;SDS011;1456;51.840;12.184;2023-05-31T10:20:39;11.27;;;11.07;;
2892;SDS011;1456;51.840;12.184;2023-05-31T10:23:23;10.60;;;10.40;;
2892;SDS011;1456;51.840;12.184;2023-05-31T10:28:17;11.63;;;11.10;;
2892;SDS011;1456;51.840;12.184;2023-05-31T10:30:50;10.07;;;9.97;;
2892;SDS011;1456;51.840;12.184;2023-05-31T10:33:17;10.03;;;9.93;;
2892;SDS011;1456;51.840;12.184;2023-05-31T10:35:44;10.50;;;10.30;;
2892;SDS011;1456;51.840;12.184;2023-05-31T10:38:12;10.90;;;10.70;;
2892;SDS011;1456;51.840;12.184;2023-05-31T10:50:54;11.10;;;10.80;;
2892;SDS011;1456;51.840;12.184;2023-05-31T10:53:31;11.20;;;10.90;;
2892;SDS011;1456;51.840;12.184;2023-05-31T10:56:01;12.00;;;11.70;;
2892;SDS011;1456;51.840;12.184;2023-05-31T10:58:34;11.40;;;11.20;;
2892;SDS011;1456;51.840;12.184;2023-05-31T11:01:14;11.80;;;11.50;;
2892;SDS011;1456;51.840;12.184;2023-05-31T11:03:49;11.40;;;11.20;;
2892;SDS011;1456;51.840;12.184;2023-05-31T11:06:22;11.70;;;11.27;;
2892;SDS011;1456;51.840;12.184;2023-05-31T11:09:11;12.03;;;11.53;;
2892;SDS011;1456;51.840;12.184;2023-05-31T11:19:25;11.63;;;11.43;;
2892;SDS011;1456;51.840;12.184;2023-05-31T11:22:13;11.80;;;11.60;;
2892;SDS011;1456;51.840;12.184;2023-05-31T11:24:48;10.60;;;10.43;;
2892;SDS011;1456;51.840;12.184;2023-05-31T11:27:16;11.10;;;10.90;;
2892;SDS011;1456;51.840;12.184;2023-05-31T11:32:20;12.27;;;11.97;;
2892;SDS011;1456;51.840;12.184;2023-05-31T11:35:01;11.10;;;10.90;;
2892;SDS011;1456;51.840;12.184;2023-05-31T11:37:35;11.50;;;11.30;;
2892;SDS011;1456;51.840;12.184;2023-05-31T11:40:05;11.50;;;11.30;;
2892;SDS011;1456;51.840;12.184;2023-05-31T11:42:35;10.73;;;10.50;;
2892;SDS011;1456;51.840;12.184;2023-05-31T11:45:07;11.20;;;10.90;;
2892;SDS011;1456;51.840;12.184;2023-05-31T11:50:12;11.20;;;11.00;;
2892;SDS011;1456;51.840;12.184;2023-05-31T11:52:41;11.60;;;11.30;;
2892;SDS011;1456;51.840;12.184;2023-05-31T11:55:07;10.93;;;10.73;;
2892;SDS011;1456;51.840;12.184;2023-05-31T11:57:41;17.13;;;16.73;;
2892;SDS011;1456;51.840;12.184;2023-05-31T12:00:13;18.43;;;18.03;;
2892;SDS011;1456;51.840;12.184;2023-05-31T12:02:43;11.03;;;10.73;;
2892;SDS011;1456;51.840;12.184;2023-05-31T12:05:14;11.30;;;11.00;;
2892;SDS011;1456;51.840;12.184;2023-05-31T12:07:45;18.63;;;18.17;;
2892;SDS011;1456;51.840;12.184;2023-05-31T12:10:12;19.90;;;19.20;;
2892;SDS011;1456;51.840;12.184;2023-05-31T12:12:41;20.30;;;19.70;;
2892;SDS011;1456;51.840;12.184;2023-05-31T12:15:08;11.80;;;11.50;;
2892;SDS011;1456;51.840;12.184;2023-05-31T12:17:37;11.33;;;11.13;;
2892;SDS011;1456;51.840;12.184;2023-05-31T12:20:04;11.20;;;11.00;;
2892;SDS011;1456;51.840;12.184;2023-05-31T12:22:30;17.77;;;17.37;;
2892;SDS011;1456;51.840;12.184;2023-05-31T12:24:56;19.20;;;18.70;;
2892;SDS011;1456;51.840;12.184;2023-05-31T12:27:22;11.60;;;11.30;;
2892;SDS011;1456;51.840;12.184;2023-05-31T12:29:49;11.20;;;11.00;;
2892;SDS011;1456;51.840;12.184;2023-05-31T12:32:19;20.30;;;19.80;;
2892;SDS011;1456;51.840;12.184;2023-05-31T12:34:46;20.03;;;19.53;;
2892;SDS011;1456;51.840;12.184;2023-05-31T12:37:13;20.70;;;20.20;;
2892;SDS011;1456;51.840;12.184;2023-05-31T12:39:39;11.00;;;10.80;;
2892;SDS011;1456;51.840;12.184;2023-05-31T12:42:05;12.53;;;12.13;;
2892;SDS011;1456;51.840;12.184;2023-05-31T12:44:32;13.07;;;12.67;;
2892;SDS011;1456;51.840;12.184;2023-05-31T12:47:03;18.90;;;18.50;;
2892;SDS011;1456;51.840;12.184;2023-05-31T12:49:32;19.23;;;18.83;;
2892;SDS011;1456;51.840;12.184;2023-05-31T12:52:10;10.50;;;10.10;;
2892;SDS011;1456;51.840;12.184;2023-05-31T12:54:39;10.50;;;10.30;;
2892;SDS011;1456;51.840;12.184;2023-05-31T12:57:07;10.67;;;10.37;;
2892;SDS011;1456;51.840;12.184;2023-05-31T12:59:34;11.80;;;11.60;;
2892;SDS011;1456;51.840;12.184;2023-05-31T13:02:01;10.70;;;10.50;;
2892;SDS011;1456;51.840;12.184;2023-05-31T13:04:27;11.83;;;11.53;;
2892;SDS011;1456;51.840;12.184;2023-05-31T13:06:54;11.30;;;11.10;;
2892;SDS011;1456;51.840;12.184;2023-05-31T13:09:23;10.50;;;10.30;;
2892;SDS011;1456;51.840;12.184;2023-05-31T13:11:49;10.50;;;10.30;;
2892;SDS011;1456;51.840;12.184;2023-05-31T13:14:18;11.20;;;11.00;;
2892;SDS011;1456;51.840;12.184;2023-05-31T13:16:45;10.73;;;10.57;;
2892;SDS011;1456;51.840;12.184;2023-05-31T13:19:11;19.20;;;18.80;;
2892;SDS011;1456;51.840;12.184;2023-05-31T13:21:37;19.07;;;18.57;;
2892;SDS011;1456;51.840;12.184;2023-05-31T13:24:07;11.00;;;10.80;;
2892;SDS011;1456;51.840;12.184;2023-05-31T13:26:37;11.10;;;10.80;;
2892;SDS011;1456;51.840;12.184;2023-05-31T13:29:03;11.17;;;10.97;;
2892;SDS011;1456;51.840;12.184;2023-05-31T13:31:31;10.80;;;10.60;;
2892;SDS011;1456;51.840;12.184;2023-05-31T13:33:56;11.67;;;11.47;;
2892;SDS011;1456;51.840;12.184;2023-05-31T13:36:24;20.50;;;20.00;;
2892;SDS011;1456;51.840;12.184;2023-05-31T13:38:50;20.63;;;19.90;;
2892;SDS011;1456;51.840;12.184;2023-05-31T13:41:17;10.70;;;10.50;;
2892;SDS011;1456;51.840;12.184;2023-05-31T13:43:43;11.80;;;11.60;;
2892;SDS011;1456;51.840;12.184;2023-05-31T13:46:09;11.63;;;11.33;;
2892;SDS011;1456;51.840;12.184;2023-05-31T13:48:42;11.10;;;10.90;;
2892;SDS011;1456;51.840;12.184;2023-05-31T13:51:09;11.10;;;10.90;;
2892;SDS011;1456;51.840;12.184;2023-05-31T13:53:36;20.03;;;19.53;;
2892;SDS011;1456;51.840;12.184;2023-05-31T13:56:02;20.90;;;20.40;;
2892;SDS011;1456;51.840;12.184;2023-05-31T13:58:34;23.43;;;22.83;;
2892;SDS011;1456;51.840;12.184;2023-05-31T14:01:02;11.03;;;10.80;;
2892;SDS011;1456;51.840;12.184;2023-05-31T14:03:34;11.00;;;10.80;;
2892;SDS011;1456;51.840;12.184;2023-05-31T14:06:00;11.70;;;11.40;;
2892;SDS011;1456;51.840;12.184;2023-05-31T14:08:26;11.00;;;10.80;;
2892;SDS011;1456;51.840;12.184;2023-05-31T14:10:52;22.07;;;21.47;;
2892;SDS011;1456;51.840;12.184;2023-05-31T14:13:19;22.33;;;21.73;;
2892;SDS011;1456;51.840;12.184;2023-05-31T14:15:46;11.40;;;11.20;;
2892;SDS011;1456;51.840;12.184;2023-05-31T14:18:12;11.57;;;11.37;;
2892;SDS011;1456;51.840;12.184;2023-05-31T14:20:39;10.97;;;10.60;;
2892;SDS011;1456;51.840;12.184;2023-05-31T14:23:05;11.17;;;10.97;;
2892;SDS011;1456;51.840;12.184;2023-05-31T14:25:31;20.30;;;19.80;;
2892;SDS011;1456;51.840;12.184;2023-05-31T14:27:57;18.17;;;17.77;;
2892;SDS011;1456;51.840;12.184;2023-05-31T14:30:24;18.93;;;18.40;;
2892;SDS011;1456;51.840;12.184;2023-05-31T14:32:50;18.27;;;17.87;;
2892;SDS011;1456;51.840;12.184;2023-05-31T14:35:16;11.20;;;11.00;;
2892;SDS011;1456;51.840;12.184;2023-05-31T14:37:42;12.37;;;11.80;;
2892;SDS011;1456;51.840;12.184;2023-05-31T14:40:08;11.53;;;11.33;;
2892;SDS011;1456;51.840;12.184;2023-05-31T14:42:34;12.27;;;12.00;;
2892;SDS011;1456;51.840;12.184;2023-05-31T14:45:00;18.23;;;17.83;;
2892;SDS011;1456;51.840;12.184;2023-05-31T14:47:29;19.20;;;18.70;;
2892;SDS011;1456;51.840;12.184;2023-05-31T14:49:55;11.30;;;11.10;;
2892;SDS011;1456;51.840;12.184;2023-05-31T14:52:22;11.30;;;11.00;;
2892;SDS011;1456;51.840;12.184;2023-05-31T14:54:50;11.30;;;11.10;;
2892;SDS011;1456;51.840;12.184;2023-05-31T14:57:17;10.90;;;10.70;;
2892;SDS011;1456;51.840;12.184;2023-05-31T14:59:42;19.40;;;18.90;;
2892;SDS011;1456;51.840;12.184;2023-05-31T15:02:08;11.40;;;11.20;;
2892;SDS011;1456;51.840;12.184;2023-05-31T15:04:34;11.40;;;11.20;;
2892;SDS011;1456;51.840;12.184;2023-05-31T15:07:01;11.47;;;11.10;;
2892;SDS011;1456;51.840;12.184;2023-05-31T15:09:27;10.73;;;10.33;;
2892;SDS011;1456;51.840;12.184;2023-05-31T15:11:53;10.90;;;10.50;;
2892;SDS011;1456;51.840;12.184;2023-05-31T15:14:18;11.13;;;10.93;;
2892;SDS011;1456;51.840;12.184;2023-05-31T15:16:44;10.83;;;10.63;;
2892;SDS011;1456;51.840;12.184;2023-05-31T15:19:10;10.77;;;10.57;;
2892;SDS011;1456;51.840;12.184;2023-05-31T15:21:35;11.13;;;10.93;;
2892;SDS011;1456;51.840;12.184;2023-05-31T15:24:02;10.20;;;10.10;;
2892;SDS011;1456;51.840;12.184;2023-05-31T15:26:29;10.87;;;10.67;;
2892;SDS011;1456;51.840;12.184;2023-05-31T15:28:55;11.00;;;10.80;;
2892;SDS011;1456;51.840;12.184;2023-05-31T15:31:22;11.20;;;11.00;;
2892;SDS011;1456;51.840;12.184;2023-05-31T15:33:47;11.27;;;11.07;;